FW2174 Weather Reports


Display with metric or nautical units.
time (UTC)temp
F
wind
direction
speed
MPH
gust
MPH
rain 1hr
in
rain 24hr
in
rain mn
in
humidity
%
barometer
mb
20210921053101 37 345 4.0 7.0 0.00 0.04 0.04 61 1023.5
20210921051637 38 325 4.0 7.0 0.00 0.04 0.04 64 1023.5
20210921050109 38 344 8.0 10.0 0.00 0.04 0.04 62 1023.3
20210921044606 38 1 5.0 7.0 0.00 0.04 0.04 63 1023.2
20210921043041 39 333 3.0 7.0 0.00 0.04 0.04 62 1022.8
20210921041558 39 308 7.0 10.0 0.00 0.04 0.04 59 1022.7
20210921040050 39 304 4.0 7.0 0.00 0.04 0.04 58 1022.6
20210921034544 40 276 1.0 4.0 0.00 0.04 0.04 56 1022.5
20210921033056 40 264 1.0 3.0 0.00 0.04 0.04 56 1022.1
20210921031553 38 27 0.0 2.0 0.00 0.04 0.04 60 1021.7
20210921030030 38 314 1.0 5.0 0.00 0.04 0.04 60 1021.1
20210921024530 38 325 3.0 6.0 0.00 0.04 0.04 59 1020.4
20210921023047 38 305 3.0 4.0 0.00 0.04 0.04 60 1019.9
20210921021543 40 312 0.0 4.0 0.00 0.04 0.04 55 1019.3
20210921020054 39 32 3.0 9.0 0.00 0.04 0.04 58 1018.7
20210921014519 40 25 5.0 11.0 0.00 0.04 0.04 57 1018.1
20210921013010 39 336 5.0 10.0 0.00 0.04 0.04 61 1017.4
20210921011519 38 319 4.0 6.0 0.00 0.04 0.04 62 1017.0
20210921010006 42 342 4.0 7.0 0.00 0.04 0.04 53 1016.6
20210921004728 46 323 6.0 9.0 0.00 0.04 0.04 48 1016.2
20210921003239 49 328 6.0 12.0 0.00 0.04 0.04 43 1015.6
20210921001632 50 324 7.0 13.0 0.00 0.04 0.04 40 1015.2
20210921000136 51 324 9.0 14.0 0.00 0.04 0.04 40 1014.9
20210920234648 52 336 11.0 18.0 0.00 0.04 0.04 39 1014.9
20210920233116 53 338 9.0 16.0 0.00 0.04 0.04 37 1014.8
20210920231737 54 302 8.0 18.0 0.00 0.04 0.04 34 1014.5
20210920230059 55 323 10.0 15.0 0.00 0.04 0.04 35 1014.1
20210920224838 55 343 5.0 18.0 0.00 0.04 0.04 32 1013.8
20210920223119 55 289 12.0 16.0 0.00 0.04 0.04 32 1013.7
20210920221617 56 314 10.0 15.0 0.00 0.04 0.04 31 1013.8
20210920220051 55 280 8.0 16.0 0.00 0.04 0.04 32 1013.9
20210920214612 55 288 9.0 17.0 0.00 0.04 0.04 29 1013.8
20210920213132 55 324 11.0 17.0 0.00 0.04 0.04 31 1013.4
20210920211655 55 312 9.0 16.0 0.00 0.04 0.04 30 1013.3
20210920210056 53 352 4.0 13.0 0.00 0.04 0.04 40 1013.1
20210920204628 53 318 8.0 17.0 0.00 0.04 0.04 37 1013.2
20210920203059 53 26 7.0 16.0 0.00 0.04 0.04 38 1013.4
20210920201628 52 345 4.0 19.0 0.00 0.04 0.04 35 1013.4
20210920200117 52 27 7.0 15.0 0.00 0.04 0.04 36 1013.2
20210920194553 52 326 6.0 17.0 0.00 0.04 0.04 36 1013.2
20210920193050 51 316 13.0 20.0 0.00 0.04 0.04 38 1013.1
20210920191528 51 326 11.0 17.0 0.00 0.04 0.04 41 1013.1
20210920190108 51 351 14.0 29.0 0.00 0.04 0.04 42 1012.7
20210920184606 51 347 9.0 16.0 0.00 0.04 0.04 42 1012.7
20210920183021 50 309 9.0 16.0 0.00 0.04 0.04 42 1012.6
20210920181544 49 356 5.0 16.0 0.00 0.04 0.04 47 1012.4
20210920180021 49 327 8.0 21.0 0.00 0.04 0.04 45 1012.2
20210920174529 49 282 12.0 16.0 0.00 0.04 0.04 47 1012.3
20210920173012 49 335 9.0 18.0 0.00 0.04 0.04 48 1012.2
20210920171537 48 298 8.0 17.0 0.00 0.04 0.04 50 1012.1
20210920170033 47 23 12.0 18.0 0.00 0.04 0.04 52 1012.0
20210920164506 47 315 7.0 17.0 0.00 0.04 0.04 56 1012.0
20210920163123 46 334 14.0 25.0 0.00 0.04 0.04 59 1011.8
20210920161628 45 340 12.0 19.0 0.00 0.04 0.04 62 1011.7
20210920160148 44 340 14.0 22.0 0.00 0.04 0.04 63 1011.5
20210920154608 42 352 15.0 23.0 0.00 0.04 0.04 66 1011.3
20210920153104 41 352 16.0 23.0 0.00 0.04 0.04 69 1011.2
20210920151835 40 344 17.0 23.0 0.00 0.04 0.04 72 1011.1
20210920150118 40 356 13.0 22.0 0.00 0.04 0.04 75 1011.3
20210920144711 39 326 13.0 19.0 0.00 0.04 0.04 74 1011.3
20210920143057 39 347 12.0 19.0 0.00 0.04 0.04 76 1011.2
20210920141639 38 350 15.0 18.0 0.00 0.04 0.04 77 1011.0
20210920140207 37 325 12.0 18.0 0.00 0.04 0.04 80 1010.8
20210920134655 36 345 9.0 14.0 0.00 0.04 0.04 83 1010.2
20210920133132 35 330 10.0 14.0 0.00 0.04 0.04 83 1009.9
20210920131559 34 339 11.0 17.0 0.00 0.04 0.04 85 1009.4
20210920130048 35 331 11.0 16.0 0.00 0.04 0.04 84 1008.9
20210920124607 35 354 5.0 8.0 0.00 0.04 0.04 85 1008.9
20210920123128 35 322 4.0 6.0 0.00 0.04 0.04 84 1008.5
20210920121543 36 20 0.0 5.0 0.00 0.04 0.04 83 1008.0
20210920120034 36 8 1.0 11.0 0.00 0.04 0.04 85 1007.8
20210920114559 36 10 7.0 12.0 0.00 0.04 0.04 86 1007.4
20210920113137 36 337 9.0 14.0 0.00 0.04 0.04 85 1007.6
20210920111557 36 329 12.0 21.0 0.04 0.04 0.04 86 1007.7
20210920110024 37 342 13.0 17.0 0.04 0.04 0.04 86 1007.3
20210920104613 37 346 4.0 7.0 0.04 0.04 0.04 92 1007.2
20210920103026 37 5 4.0 16.0 0.04 0.04 0.04 91 1006.9
20210920101539 38 337 15.0 22.0 0.00 0.00 0.00 83 1006.8
20210920100033 38 343 14.0 20.0 0.00 0.00 0.00 83 1006.2
20210920094521 38 329 5.0 8.0 0.00 0.00 0.00 83 1005.5
20210920093019 38 345 7.0 12.0 0.00 0.00 0.00 84 1005.7
20210920091521 38 323 9.0 14.0 0.00 0.00 0.00 84 1005.9
20210920090011 40 318 6.0 15.0 0.00 0.00 0.00 83 1006.0
20210920084529 44 327 16.0 24.0 0.00 0.00 0.00 72 1006.4
20210920083013 44 321 6.0 11.0 0.00 0.00 0.00 70 1005.8
20210920081601 41 350 8.0 12.0 0.00 0.00 0.00 72 1005.7
20210920074614 33 18 1.0 5.0 0.00 0.00 0.00 81 1004.9
20210920073100 34 333 2.0 6.0 0.00 0.00 0.00 78 1005.1
20210920071607 34 317 2.0 4.0 0.00 0.00 0.00 76 1005.0
20210920070119 32 349 4.0 7.0 0.00 0.00 0.00 80 1005.4
20210920064555 31 352 0.0 1.0 0.00 0.00 0.00 82 1005.0
20210920063106 32 327 0.0 3.0 0.00 0.00 0.00 81 1004.9
20210920061557 35 24 0.0 5.0 0.00 0.00 0.00 78 1004.8
20210920060121 33 325 1.0 3.0 0.00 0.00 0.00 78 1004.6
20210920054618 32 3 0.0 1.0 0.00 0.00 0.00 82 1004.7